sensor_id;sensor_type;location;lat;lon;timestamp;pressure;altitude;pressure_sealevel;temperature;humidity
11440;BME280;5776;51.814;4.510;2022-09-09T00:01:57;100769.53;;;17.14;89.38
11440;BME280;5776;51.814;4.510;2022-09-09T00:04:32;100761.63;;;17.12;89.50
11440;BME280;5776;51.814;4.510;2022-09-09T00:10:43;100758.78;;;17.09;89.31
11440;BME280;5776;51.814;4.510;2022-09-09T00:13:15;100754.19;;;17.13;89.50
11440;BME280;5776;51.814;4.510;2022-09-09T00:16:07;100756.81;;;17.09;89.94
11440;BME280;5776;51.814;4.510;2022-09-09T00:19:37;100748.59;;;17.09;89.78
11440;BME280;5776;51.814;4.510;2022-09-09T00:22:25;100743.44;;;17.08;89.01
11440;BME280;5776;51.814;4.510;2022-09-09T00:24:55;100743.09;;;17.09;89.33
11440;BME280;5776;51.814;4.510;2022-09-09T00:27:31;100740.69;;;17.08;89.45
11440;BME280;5776;51.814;4.510;2022-09-09T00:30:17;100741.84;;;17.06;89.07
11440;BME280;5776;51.814;4.510;2022-09-09T00:32:46;100737.50;;;17.05;89.82
11440;BME280;5776;51.814;4.510;2022-09-09T00:37:46;100744.25;;;17.08;89.70
11440;BME280;5776;51.814;4.510;2022-09-09T00:48:50;100754.75;;;17.06;89.04
11440;BME280;5776;51.814;4.510;2022-09-09T00:54:33;100742.03;;;17.01;89.82
11440;BME280;5776;51.814;4.510;2022-09-09T01:02:52;100735.19;;;17.08;89.08
11440;BME280;5776;51.814;4.510;2022-09-09T01:05:20;100727.31;;;17.06;89.51
11440;BME280;5776;51.814;4.510;2022-09-09T01:07:49;100726.16;;;17.07;88.98
11440;BME280;5776;51.814;4.510;2022-09-09T01:13:03;100717.25;;;17.10;88.93
11440;BME280;5776;51.814;4.510;2022-09-09T01:15:32;100725.38;;;17.06;90.17
11440;BME280;5776;51.814;4.510;2022-09-09T01:18:04;100716.81;;;17.08;89.26
11440;BME280;5776;51.814;4.510;2022-09-09T01:20:53;100719.41;;;17.04;89.25
11440;BME280;5776;51.814;4.510;2022-09-09T01:23:30;100716.66;;;17.04;90.04
11440;BME280;5776;51.814;4.510;2022-09-09T01:28:43;100713.00;;;17.00;89.47
11440;BME280;5776;51.814;4.510;2022-09-09T01:31:15;100716.06;;;16.99;90.02
11440;BME280;5776;51.814;4.510;2022-09-09T01:33:42;100713.00;;;17.00;89.45
11440;BME280;5776;51.814;4.510;2022-09-09T01:36:24;100709.00;;;16.98;89.66
11440;BME280;5776;51.814;4.510;2022-09-09T01:38:52;100708.63;;;16.99;89.84
11440;BME280;5776;51.814;4.510;2022-09-09T01:41:18;100704.94;;;16.95;89.57
11440;BME280;5776;51.814;4.510;2022-09-09T01:43:44;100706.56;;;16.96;89.61
11440;BME280;5776;51.814;4.510;2022-09-09T01:46:11;100703.34;;;16.94;89.80
11440;BME280;5776;51.814;4.510;2022-09-09T01:48:38;100703.66;;;16.93;90.27
11440;BME280;5776;51.814;4.510;2022-09-09T01:51:08;100704.03;;;16.91;90.69
11440;BME280;5776;51.814;4.510;2022-09-09T01:53:34;100698.75;;;16.86;90.09
11440;BME280;5776;51.814;4.510;2022-09-09T01:56:13;100692.91;;;16.88;90.01
11440;BME280;5776;51.814;4.510;2022-09-09T02:04:37;100696.00;;;16.86;90.88
11440;BME280;5776;51.814;4.510;2022-09-09T02:07:10;100699.22;;;16.88;90.61
11440;BME280;5776;51.814;4.510;2022-09-09T02:09:41;100695.78;;;16.91;90.55
11440;BME280;5776;51.814;4.510;2022-09-09T02:12:13;100692.56;;;16.89;89.76
11440;BME280;5776;51.814;4.510;2022-09-09T02:14:42;100689.50;;;16.91;90.30
11440;BME280;5776;51.814;4.510;2022-09-09T02:17:14;100674.97;;;16.90;89.94
11440;BME280;5776;51.814;4.510;2022-09-09T02:20:02;100674.19;;;16.90;90.33
11440;BME280;5776;51.814;4.510;2022-09-09T02:22:29;100659.66;;;16.89;90.52
11440;BME280;5776;51.814;4.510;2022-09-09T02:25:00;100663.19;;;16.90;90.48
11440;BME280;5776;51.814;4.510;2022-09-09T02:27:27;100664.00;;;16.90;90.13
11440;BME280;5776;51.814;4.510;2022-09-09T02:29:54;100658.50;;;16.90;90.14
11440;BME280;5776;51.814;4.510;2022-09-09T02:32:23;100662.41;;;16.89;90.67
11440;BME280;5776;51.814;4.510;2022-09-09T02:34:59;100662.72;;;16.88;90.16
11440;BME280;5776;51.814;4.510;2022-09-09T02:37:31;100661.94;;;16.87;90.51
11440;BME280;5776;51.814;4.510;2022-09-09T02:40:03;100659.19;;;16.87;89.99
11440;BME280;5776;51.814;4.510;2022-09-09T02:42:30;100664.69;;;16.87;90.10
11440;BME280;5776;51.814;4.510;2022-09-09T02:44:55;100654.38;;;16.84;89.60
11440;BME280;5776;51.814;4.510;2022-09-09T02:47:29;100663.75;;;16.83;89.82
11440;BME280;5776;51.814;4.510;2022-09-09T02:57:47;100655.72;;;16.78;89.70
11440;BME280;5776;51.814;4.510;2022-09-09T03:00:14;100655.72;;;16.78;89.88
11440;BME280;5776;51.814;4.510;2022-09-09T03:02:40;100654.06;;;16.77;89.71
11440;BME280;5776;51.814;4.510;2022-09-09T03:05:07;100646.19;;;16.75;89.99
11440;BME280;5776;51.814;4.510;2022-09-09T03:07:33;100642.63;;;16.75;89.35
11440;BME280;5776;51.814;4.510;2022-09-09T03:09:59;100650.06;;;16.74;89.79
11440;BME280;5776;51.814;4.510;2022-09-09T03:12:25;100643.78;;;16.74;89.69
11440;BME280;5776;51.814;4.510;2022-09-09T03:14:51;100643.47;;;16.75;88.77
11440;BME280;5776;51.814;4.510;2022-09-09T03:17:17;100638.78;;;16.76;89.62
11440;BME280;5776;51.814;4.510;2022-09-09T03:19:43;100641.16;;;16.77;90.17
11440;BME280;5776;51.814;4.510;2022-09-09T03:22:10;100645.56;;;16.78;89.69
11440;BME280;5776;51.814;4.510;2022-09-09T03:24:37;100650.06;;;16.74;89.18
11440;BME280;5776;51.814;4.510;2022-09-09T03:27:03;100642.84;;;16.70;89.56
11440;BME280;5776;51.814;4.510;2022-09-09T03:29:29;100645.78;;;16.64;89.94
11440;BME280;5776;51.814;4.510;2022-09-09T03:31:55;100646.94;;;16.63;90.03
11440;BME280;5776;51.814;4.510;2022-09-09T03:34:20;100652.88;;;16.66;88.99
11440;BME280;5776;51.814;4.510;2022-09-09T03:36:46;100645.94;;;16.68;89.70
11440;BME280;5776;51.814;4.510;2022-09-09T03:39:14;100643.03;;;16.64;90.09
11440;BME280;5776;51.814;4.510;2022-09-09T03:41:40;100642.72;;;16.66;89.01
11440;BME280;5776;51.814;4.510;2022-09-09T03:44:06;100646.94;;;16.63;89.08
11440;BME280;5776;51.814;4.510;2022-09-09T03:46:32;100647.41;;;16.66;89.51
11440;BME280;5776;51.814;4.510;2022-09-09T03:48:57;100639.19;;;16.66;89.33
11440;BME280;5776;51.814;4.510;2022-09-09T03:51:23;100645.78;;;16.64;89.46
11440;BME280;5776;51.814;4.510;2022-09-09T03:53:50;100638.69;;;16.63;88.76
11440;BME280;5776;51.814;4.510;2022-09-09T03:56:16;100633.06;;;16.60;89.42
11440;BME280;5776;51.814;4.510;2022-09-09T03:58:42;100632.25;;;16.59;89.14
11440;BME280;5776;51.814;4.510;2022-09-09T04:01:12;100636.16;;;16.58;88.92
11440;BME280;5776;51.814;4.510;2022-09-09T04:03:39;100629.41;;;16.56;88.85
11440;BME280;5776;51.814;4.510;2022-09-09T04:06:07;100634.09;;;16.55;89.61
11440;BME280;5776;51.814;4.510;2022-09-09T04:08:33;100630.72;;;16.50;89.75
11440;BME280;5776;51.814;4.510;2022-09-09T04:10:59;100628.81;;;16.50;90.06
11440;BME280;5776;51.814;4.510;2022-09-09T04:13:27;100627.19;;;16.49;89.25
11440;BME280;5776;51.814;4.510;2022-09-09T04:15:58;100622.56;;;16.41;90.16
11440;BME280;5776;51.814;4.510;2022-09-09T04:18:24;100625.63;;;16.39;89.80
11440;BME280;5776;51.814;4.510;2022-09-09T04:20:52;100621.56;;;16.46;89.45
11440;BME280;5776;51.814;4.510;2022-09-09T04:23:19;100623.47;;;16.45;89.26
11440;BME280;5776;51.814;4.510;2022-09-09T04:25:47;100616.88;;;16.46;89.17
11440;BME280;5776;51.814;4.510;2022-09-09T04:28:15;100614.06;;;16.34;89.49
11440;BME280;5776;51.814;4.510;2022-09-09T04:30:41;100609.91;;;16.28;90.28
11440;BME280;5776;51.814;4.510;2022-09-09T04:33:07;100607.00;;;16.33;89.55
11440;BME280;5776;51.814;4.510;2022-09-09T04:35:35;100611.19;;;16.30;90.03
11440;BME280;5776;51.814;4.510;2022-09-09T04:38:02;100609.06;;;16.36;90.17
11440;BME280;5776;51.814;4.510;2022-09-09T04:40:29;100603.56;;;16.36;89.90
11440;BME280;5776;51.814;4.510;2022-09-09T04:42:57;100603.78;;;16.31;90.40
11440;BME280;5776;51.814;4.510;2022-09-09T04:45:23;100604.25;;;16.33;90.00
11440;BME280;5776;51.814;4.510;2022-09-09T04:47:49;100607.78;;;16.33;90.44
11440;BME280;5776;51.814;4.510;2022-09-09T04:50:15;100599.88;;;16.32;90.25
11440;BME280;5776;51.814;4.510;2022-09-09T04:52:42;100598.28;;;16.31;89.64
11440;BME280;5776;51.814;4.510;2022-09-09T04:55:08;100598.97;;;16.28;89.97
11440;BME280;5776;51.814;4.510;2022-09-09T04:57:35;100591.06;;;16.26;90.48
11440;BME280;5776;51.814;4.510;2022-09-09T05:00:02;100595.47;;;16.18;91.08
11440;BME280;5776;51.814;4.510;2022-09-09T05:02:28;100599.31;;;16.17;90.42
11440;BME280;5776;51.814;4.510;2022-09-09T05:04:56;100596.25;;;16.19;90.74
11440;BME280;5776;51.814;4.510;2022-09-09T05:07:21;100599.00;;;16.19;90.75
11440;BME280;5776;51.814;4.510;2022-09-09T05:09:47;100594.50;;;16.14;90.53
11440;BME280;5776;51.814;4.510;2022-09-09T05:12:17;100585.97;;;16.16;91.27
11440;BME280;5776;51.814;4.510;2022-09-09T05:14:43;100595.00;;;16.16;91.71
11440;BME280;5776;51.814;4.510;2022-09-09T05:17:10;100588.56;;;16.12;91.55
11440;BME280;5776;51.814;4.510;2022-09-09T05:19:36;100597.91;;;16.11;92.27
11440;BME280;5776;51.814;4.510;2022-09-09T05:22:02;100588.56;;;16.12;91.98
11440;BME280;5776;51.814;4.510;2022-09-09T05:24:28;100591.44;;;16.16;91.63
11440;BME280;5776;51.814;4.510;2022-09-09T05:26:55;100590.78;;;16.19;91.41
11440;BME280;5776;51.814;4.510;2022-09-09T05:29:24;100585.47;;;16.23;90.77
11440;BME280;5776;51.814;4.510;2022-09-09T05:31:50;100581.09;;;16.22;91.36
11440;BME280;5776;51.814;4.510;2022-09-09T05:34:16;100585.47;;;16.23;90.67
11440;BME280;5776;51.814;4.510;2022-09-09T05:36:42;100586.91;;;16.20;91.55
11440;BME280;5776;51.814;4.510;2022-09-09T05:39:08;100584.97;;;16.20;91.63
11440;BME280;5776;51.814;4.510;2022-09-09T05:41:34;100583.16;;;16.25;90.90
11440;BME280;5776;51.814;4.510;2022-09-09T05:44:01;100584.00;;;16.25;91.18
11440;BME280;5776;51.814;4.510;2022-09-09T05:46:27;100585.72;;;16.30;90.55
11440;BME280;5776;51.814;4.510;2022-09-09T05:48:53;100580.81;;;16.14;92.38
11440;BME280;5776;51.814;4.510;2022-09-09T05:51:21;100582.94;;;16.09;93.36
11440;BME280;5776;51.814;4.510;2022-09-09T05:53:48;100582.63;;;16.10;93.81
11440;BME280;5776;51.814;4.510;2022-09-09T05:56:22;100583.13;;;16.04;93.66
11440;BME280;5776;51.814;4.510;2022-09-09T05:58:51;100581.53;;;16.03;93.34
11440;BME280;5776;51.814;4.510;2022-09-09T06:01:23;100577.06;;;15.98;94.44
11440;BME280;5776;51.814;4.510;2022-09-09T06:03:50;100587.16;;;16.06;94.24
11440;BME280;5776;51.814;4.510;2022-09-09T06:06:30;100586.97;;;16.11;94.77
11440;BME280;5776;51.814;4.510;2022-09-09T06:08:57;100584.69;;;16.13;94.26
11440;BME280;5776;51.814;4.510;2022-09-09T06:11:26;100584.69;;;16.13;94.70
11440;BME280;5776;51.814;4.510;2022-09-09T06:13:52;100586.28;;;16.14;94.60
11440;BME280;5776;51.814;4.510;2022-09-09T06:16:21;100587.56;;;16.17;94.37
11440;BME280;5776;51.814;4.510;2022-09-09T06:18:49;100591.72;;;16.23;94.63
11440;BME280;5776;51.814;4.510;2022-09-09T06:21:19;100589.13;;;16.27;94.37
11440;BME280;5776;51.814;4.510;2022-09-09T06:23:46;100589.59;;;16.29;94.54
11440;BME280;5776;51.814;4.510;2022-09-09T06:26:18;100596.22;;;16.28;94.86
11440;BME280;5776;51.814;4.510;2022-09-09T06:28:47;100597.81;;;16.29;94.87
11440;BME280;5776;51.814;4.510;2022-09-09T06:31:18;100589.88;;;16.36;95.15
11440;BME280;5776;51.814;4.510;2022-09-09T06:33:48;100594.56;;;16.35;94.51
11440;BME280;5776;51.814;4.510;2022-09-09T06:36:23;100594.69;;;16.39;94.57
11440;BME280;5776;51.814;4.510;2022-09-09T06:38:50;100600.63;;;16.41;95.01
11440;BME280;5776;51.814;4.510;2022-09-09T06:41:18;100602.72;;;16.44;95.00
11440;BME280;5776;51.814;4.510;2022-09-09T06:43:45;100596.44;;;16.44;93.74
11440;BME280;5776;51.814;4.510;2022-09-09T06:46:13;100598.69;;;16.41;94.23
11440;BME280;5776;51.814;4.510;2022-09-09T06:48:41;100596.94;;;16.37;94.13
11440;BME280;5776;51.814;4.510;2022-09-09T06:51:10;100601.63;;;16.36;95.18
11440;BME280;5776;51.814;4.510;2022-09-09T06:53:38;100594.56;;;16.35;95.12
11440;BME280;5776;51.814;4.510;2022-09-09T06:58:37;100592.47;;;16.32;94.89
11440;BME280;5776;51.814;4.510;2022-09-09T07:01:06;100582.78;;;16.35;94.60
11440;BME280;5776;51.814;4.510;2022-09-09T07:03:33;100581.66;;;16.36;94.25
11440;BME280;5776;51.814;4.510;2022-09-09T07:05:59;100589.72;;;16.32;95.52
11440;BME280;5776;51.814;4.510;2022-09-09T07:08:30;100593.72;;;16.35;95.29
11440;BME280;5776;51.814;4.510;2022-09-09T07:11:04;100580.03;;;16.35;94.97
11440;BME280;5776;51.814;4.510;2022-09-09T07:13:31;100587.59;;;16.38;94.71
11440;BME280;5776;51.814;4.510;2022-09-09T07:16:11;100588.25;;;16.35;95.82
11440;BME280;5776;51.814;4.510;2022-09-09T07:18:39;100581.97;;;16.34;95.27
11440;BME280;5776;51.814;4.510;2022-09-09T07:21:05;100592.13;;;16.34;95.27
11440;BME280;5776;51.814;4.510;2022-09-09T07:23:32;100592.13;;;16.34;95.34
11440;BME280;5776;51.814;4.510;2022-09-09T07:25:59;100580.38;;;16.33;95.26
11440;BME280;5776;51.814;4.510;2022-09-09T07:28:25;100588.13;;;16.31;95.22
11440;BME280;5776;51.814;4.510;2022-09-09T07:31:01;100590.88;;;16.31;94.64
11440;BME280;5776;51.814;4.510;2022-09-09T07:33:32;100591.00;;;16.35;94.86
11440;BME280;5776;51.814;4.510;2022-09-09T07:36:07;100593.41;;;16.36;94.51
11440;BME280;5776;51.814;4.510;2022-09-09T07:38:48;100591.34;;;16.33;95.83
11440;BME280;5776;51.814;4.510;2022-09-09T07:43:49;100585.19;;;16.36;95.60
11440;BME280;5776;51.814;4.510;2022-09-09T07:46:17;100589.88;;;16.36;95.96
11440;BME280;5776;51.814;4.510;2022-09-09T07:48:46;100593.72;;;16.35;96.24
11440;BME280;5776;51.814;4.510;2022-09-09T07:51:15;100586.47;;;16.39;95.75
11440;BME280;5776;51.814;4.510;2022-09-09T07:53:46;100588.06;;;16.40;95.73
11440;BME280;5776;51.814;4.510;2022-09-09T07:56:14;100587.84;;;16.45;95.44
11440;BME280;5776;51.814;4.510;2022-09-09T07:58:45;100587.53;;;16.47;94.81
11440;BME280;5776;51.814;4.510;2022-09-09T08:01:18;100589.47;;;16.46;95.29
11440;BME280;5776;51.814;4.510;2022-09-09T08:03:45;100589.47;;;16.46;94.19
11440;BME280;5776;51.814;4.510;2022-09-09T08:06:12;100584.78;;;16.47;95.19
11440;BME280;5776;51.814;4.510;2022-09-09T08:08:39;100586.06;;;16.49;94.49
11440;BME280;5776;51.814;4.510;2022-09-09T08:11:12;100584.94;;;16.50;94.73
11440;BME280;5776;51.814;4.510;2022-09-09T08:13:41;100580.25;;;16.51;95.10
11440;BME280;5776;51.814;4.510;2022-09-09T08:16:21;100595.09;;;16.50;94.88
11440;BME280;5776;51.814;4.510;2022-09-09T08:18:52;100583.31;;;16.49;94.81
11440;BME280;5776;51.814;4.510;2022-09-09T08:21:27;100598.66;;;16.50;94.83
11440;BME280;5776;51.814;4.510;2022-09-09T08:23:55;100596.22;;;16.49;95.39
11440;BME280;5776;51.814;4.510;2022-09-09T08:26:26;100599.09;;;16.52;94.44
11440;BME280;5776;51.814;4.510;2022-09-09T08:28:54;100596.72;;;16.51;94.24
11440;BME280;5776;51.814;4.510;2022-09-09T08:31:24;100605.41;;;16.53;94.25
11440;BME280;5776;51.814;4.510;2022-09-09T08:33:51;100595.25;;;16.53;94.30
11440;BME280;5776;51.814;4.510;2022-09-09T08:36:19;100600.72;;;16.53;94.05
11440;BME280;5776;51.814;4.510;2022-09-09T08:38:50;100599.25;;;16.56;93.88
11440;BME280;5776;51.814;4.510;2022-09-09T08:52:28;100608.06;;;16.61;94.17
11440;BME280;5776;51.814;4.510;2022-09-09T08:57:44;100608.53;;;16.63;93.73
11440;BME280;5776;51.814;4.510;2022-09-09T09:00:11;100606.28;;;16.66;93.61
11440;BME280;5776;51.814;4.510;2022-09-09T09:05:32;100613.34;;;16.67;94.43
11440;BME280;5776;51.814;4.510;2022-09-09T09:08:25;100618.84;;;16.67;93.61
11440;BME280;5776;51.814;4.510;2022-09-09T09:10:54;100616.56;;;16.69;94.21
11440;BME280;5776;51.814;4.510;2022-09-09T09:16:06;100616.38;;;16.74;93.77
11440;BME280;5776;51.814;4.510;2022-09-09T09:18:37;100628.94;;;16.75;93.94
11440;BME280;5776;51.814;4.510;2022-09-09T09:21:16;100624.59;;;16.74;94.10
11440;BME280;5776;51.814;4.510;2022-09-09T09:23:58;100624.91;;;16.72;94.70
11440;BME280;5776;51.814;4.510;2022-09-09T09:26:30;100615.56;;;16.73;94.39
11440;BME280;5776;51.814;4.510;2022-09-09T09:28:58;100619.09;;;16.74;94.62
11440;BME280;5776;51.814;4.510;2022-09-09T09:31:24;100610.56;;;16.75;94.70
11440;BME280;5776;51.814;4.510;2022-09-09T09:33:54;100608.25;;;16.77;95.14
11440;BME280;5776;51.814;4.510;2022-09-09T09:36:24;100606.38;;;16.78;94.23
11440;BME280;5776;51.814;4.510;2022-09-09T09:38:56;100612.78;;;16.82;94.94
11440;BME280;5776;51.814;4.510;2022-09-09T09:41:38;100607.75;;;16.84;94.93
11440;BME280;5776;51.814;4.510;2022-09-09T09:44:05;100606.59;;;16.85;94.96
11440;BME280;5776;51.814;4.510;2022-09-09T09:46:33;100605.00;;;16.84;94.30
11440;BME280;5776;51.814;4.510;2022-09-09T09:49:00;100601.81;;;16.82;95.44
11440;BME280;5776;51.814;4.510;2022-09-09T09:51:29;100603.63;;;16.78;95.07
11440;BME280;5776;51.814;4.510;2022-09-09T09:54:09;100606.19;;;16.74;96.59
11440;BME280;5776;51.814;4.510;2022-09-09T09:56:40;100611.34;;;16.76;97.14
11440;BME280;5776;51.814;4.510;2022-09-09T09:59:20;100606.19;;;16.74;98.08
11440;BME280;5776;51.814;4.510;2022-09-09T10:01:46;100600.72;;;16.74;98.61
11440;BME280;5776;51.814;4.510;2022-09-09T10:04:18;100609.13;;;16.69;98.47
11440;BME280;5776;51.814;4.510;2022-09-09T10:06:45;100604.81;;;16.68;99.41
11440;BME280;5776;51.814;4.510;2022-09-09T10:09:27;100608.47;;;16.72;98.33
11440;BME280;5776;51.814;4.510;2022-09-09T10:15:26;100610.41;;;16.72;99.95
11440;BME280;5776;51.814;4.510;2022-09-09T10:31:53;100620.94;;;16.91;98.09
11440;BME280;5776;51.814;4.510;2022-09-09T10:34:56;100619.31;;;16.90;97.52
11440;BME280;5776;51.814;4.510;2022-09-09T10:42:58;100616.94;;;16.88;97.93
11440;BME280;5776;51.814;4.510;2022-09-09T10:45:55;100617.72;;;16.89;98.78
11440;BME280;5776;51.814;4.510;2022-09-09T10:56:21;100611.03;;;16.98;98.41
11440;BME280;5776;51.814;4.510;2022-09-09T10:58:57;100604.38;;;16.99;97.68
11440;BME280;5776;51.814;4.510;2022-09-09T11:01:37;100608.06;;;17.03;98.14
11440;BME280;5776;51.814;4.510;2022-09-09T11:04:27;100603.50;;;17.08;98.54
11440;BME280;5776;51.814;4.510;2022-09-09T11:06:58;100604.66;;;17.06;97.63
11440;BME280;5776;51.814;4.510;2022-09-09T11:09:33;100598.38;;;17.06;97.84
11440;BME280;5776;51.814;4.510;2022-09-09T11:12:02;100599.63;;;17.09;97.85
11440;BME280;5776;51.814;4.510;2022-09-09T11:17:15;100606.03;;;17.13;98.66
11440;BME280;5776;51.814;4.510;2022-09-09T11:19:44;100602.84;;;17.11;98.45
11440;BME280;5776;51.814;4.510;2022-09-09T11:22:33;100612.19;;;17.10;98.33
11440;BME280;5776;51.814;4.510;2022-09-09T11:25:16;100614.47;;;17.08;98.19
11440;BME280;5776;51.814;4.510;2022-09-09T11:28:21;100609.81;;;17.08;97.98
11440;BME280;5776;51.814;4.510;2022-09-09T11:44:38;100606.97;;;17.17;98.11
11440;BME280;5776;51.814;4.510;2022-09-09T11:47:37;100619.22;;;17.19;98.18
11440;BME280;5776;51.814;4.510;2022-09-09T11:50:09;100608.25;;;17.19;98.02
11440;BME280;5776;51.814;4.510;2022-09-09T11:52:43;100611.31;;;17.18;97.48
11440;BME280;5776;51.814;4.510;2022-09-09T11:55:25;100608.25;;;17.19;98.22
11440;BME280;5776;51.814;4.510;2022-09-09T11:58:02;100611.78;;;17.20;97.47
11440;BME280;5776;51.814;4.510;2022-09-09T12:00:42;100622.09;;;17.23;98.19
11440;BME280;5776;51.814;4.510;2022-09-09T12:06:31;100624.03;;;17.22;97.66
11440;BME280;5776;51.814;4.510;2022-09-09T12:09:07;100631.13;;;17.23;97.58
11440;BME280;5776;51.814;4.510;2022-09-09T12:11:36;100628.38;;;17.23;98.67
11440;BME280;5776;51.814;4.510;2022-09-09T12:14:03;100636.25;;;17.25;97.98
11440;BME280;5776;51.814;4.510;2022-09-09T12:16:36;100643.38;;;17.26;100.00
11440;BME280;5776;51.814;4.510;2022-09-09T12:19:21;100633.72;;;17.20;100.00
11440;BME280;5776;51.814;4.510;2022-09-09T12:21:58;100625.03;;;17.18;100.00
11440;BME280;5776;51.814;4.510;2022-09-09T12:24:43;100625.59;;;17.11;100.00
11440;BME280;5776;51.814;4.510;2022-09-09T12:27:20;100637.25;;;17.08;100.00
11440;BME280;5776;51.814;4.510;2022-09-09T12:30:00;100633.25;;;17.05;100.00
11440;BME280;5776;51.814;4.510;2022-09-09T12:32:28;100635.84;;;17.02;100.00
11440;BME280;5776;51.814;4.510;2022-09-09T12:35:10;100635.84;;;17.02;100.00
11440;BME280;5776;51.814;4.510;2022-09-09T12:37:44;100644.75;;;16.99;100.00
11440;BME280;5776;51.814;4.510;2022-09-09T12:40:20;100646.91;;;16.93;100.00
11440;BME280;5776;51.814;4.510;2022-09-09T12:42:46;100625.59;;;16.90;100.00
11440;BME280;5776;51.814;4.510;2022-09-09T12:50:22;100622.25;;;16.84;100.00
11440;BME280;5776;51.814;4.510;2022-09-09T12:52:55;100627.06;;;16.88;100.00
11440;BME280;5776;51.814;4.510;2022-09-09T12:55:28;100639.78;;;16.92;100.00
11440;BME280;5776;51.814;4.510;2022-09-09T12:57:56;100643.69;;;16.91;100.00
11440;BME280;5776;51.814;4.510;2022-09-09T13:00:25;100630.44;;;16.93;100.00
11440;BME280;5776;51.814;4.510;2022-09-09T13:02:54;100639.09;;;16.95;100.00
11440;BME280;5776;51.814;4.510;2022-09-09T13:05:33;100643.28;;;17.01;100.00
11440;BME280;5776;51.814;4.510;2022-09-09T13:08:04;100640.78;;;17.09;100.00
11440;BME280;5776;51.814;4.510;2022-09-09T13:10:33;100638.63;;;17.14;100.00
11440;BME280;5776;51.814;4.510;2022-09-09T13:13:01;100636.00;;;17.18;99.50
11440;BME280;5776;51.814;4.510;2022-09-09T13:15:29;100635.34;;;17.21;99.24
11440;BME280;5776;51.814;4.510;2022-09-09T13:17:57;100634.66;;;17.24;98.75
11440;BME280;5776;51.814;4.510;2022-09-09T13:20:27;100634.34;;;17.25;99.13
11440;BME280;5776;51.814;4.510;2022-09-09T13:22:54;100644.53;;;17.37;97.47
11440;BME280;5776;51.814;4.510;2022-09-09T13:25:26;100655.09;;;17.47;97.46
11440;BME280;5776;51.814;4.510;2022-09-09T13:28:04;100649.59;;;17.47;97.41
11440;BME280;5776;51.814;4.510;2022-09-09T13:30:35;100653.03;;;17.44;97.88
11440;BME280;5776;51.814;4.510;2022-09-09T13:38:15;100656.66;;;17.36;97.48
11440;BME280;5776;51.814;4.510;2022-09-09T13:40:59;100670.03;;;17.38;97.35
11440;BME280;5776;51.814;4.510;2022-09-09T13:43:34;100656.31;;;17.38;96.86
11440;BME280;5776;51.814;4.510;2022-09-09T13:46:04;100663.44;;;17.39;96.89
11440;BME280;5776;51.814;4.510;2022-09-09T13:48:30;100661.47;;;17.39;97.25
11440;BME280;5776;51.814;4.510;2022-09-09T13:51:00;100658.41;;;17.41;96.64
11440;BME280;5776;51.814;4.510;2022-09-09T13:53:27;100650.97;;;17.41;96.78
11440;BME280;5776;51.814;4.510;2022-09-09T13:55:53;100650.50;;;17.39;96.91
11440;BME280;5776;51.814;4.510;2022-09-09T13:58:20;100646.59;;;17.40;96.80
11440;BME280;5776;51.814;4.510;2022-09-09T14:00:47;100652.91;;;17.41;96.09
11440;BME280;5776;51.814;4.510;2022-09-09T14:03:13;100647.06;;;17.42;96.35
11440;BME280;5776;51.814;4.510;2022-09-09T14:05:39;100645.13;;;17.43;96.11
11440;BME280;5776;51.814;4.510;2022-09-09T14:08:06;100644.31;;;17.42;95.78
11440;BME280;5776;51.814;4.510;2022-09-09T14:10:33;100646.75;;;17.44;96.27
11440;BME280;5776;51.814;4.510;2022-09-09T14:13:03;100639.78;;;17.46;95.21
11440;BME280;5776;51.814;4.510;2022-09-09T14:15:29;100639.31;;;17.44;95.94
11440;BME280;5776;51.814;4.510;2022-09-09T14:17:55;100654.19;;;17.43;95.58
11440;BME280;5776;51.814;4.510;2022-09-09T14:20:21;100654.97;;;17.44;95.47
11440;BME280;5776;51.814;4.510;2022-09-09T14:22:47;100655.78;;;17.44;95.72
11440;BME280;5776;51.814;4.510;2022-09-09T14:25:13;100661.25;;;17.44;95.08
11440;BME280;5776;51.814;4.510;2022-09-09T14:27:39;100660.13;;;17.45;95.04
11440;BME280;5776;51.814;4.510;2022-09-09T14:30:06;100661.25;;;17.44;94.71
11440;BME280;5776;51.814;4.510;2022-09-09T14:32:33;100658.53;;;17.44;94.82
11440;BME280;5776;51.814;4.510;2022-09-09T14:34:58;100659.00;;;17.46;94.98
11440;BME280;5776;51.814;4.510;2022-09-09T14:37:24;100664.47;;;17.46;95.28
11440;BME280;5776;51.814;4.510;2022-09-09T14:39:50;100659.00;;;17.46;94.29
11440;BME280;5776;51.814;4.510;2022-09-09T14:42:16;100659.78;;;17.47;95.11
11440;BME280;5776;51.814;4.510;2022-09-09T14:44:42;100666.91;;;17.48;95.17
11440;BME280;5776;51.814;4.510;2022-09-09T14:47:08;100659.78;;;17.47;94.86
11440;BME280;5776;51.814;4.510;2022-09-09T14:49:35;100663.78;;;17.49;94.79
11440;BME280;5776;51.814;4.510;2022-09-09T14:52:02;100653.59;;;17.50;94.22
11440;BME280;5776;51.814;4.510;2022-09-09T14:54:28;100656.03;;;17.52;94.84
11440;BME280;5776;51.814;4.510;2022-09-09T14:56:54;100659.94;;;17.51;94.64
11440;BME280;5776;51.814;4.510;2022-09-09T14:59:20;100665.41;;;17.51;95.02
11440;BME280;5776;51.814;4.510;2022-09-09T15:01:46;100664.25;;;17.52;95.20
11440;BME280;5776;51.814;4.510;2022-09-09T15:04:13;100670.22;;;17.54;94.79
11440;BME280;5776;51.814;4.510;2022-09-09T15:06:40;100678.94;;;17.56;94.31
11440;BME280;5776;51.814;4.510;2022-09-09T15:09:08;100679.38;;;17.58;94.40
11440;BME280;5776;51.814;4.510;2022-09-09T15:11:35;100686.94;;;17.61;94.55
11440;BME280;5776;51.814;4.510;2022-09-09T15:14:08;100691.63;;;17.60;94.17
11440;BME280;5776;51.814;4.510;2022-09-09T15:16:34;100685.31;;;17.60;93.91
11440;BME280;5776;51.814;4.510;2022-09-09T15:19:01;100679.84;;;17.60;94.99
11440;BME280;5776;51.814;4.510;2022-09-09T15:21:29;100679.03;;;17.59;94.77
11440;BME280;5776;51.814;4.510;2022-09-09T15:23:56;100688.06;;;17.60;94.29
11440;BME280;5776;51.814;4.510;2022-09-09T15:26:23;100679.84;;;17.60;94.87